Wetterverlauf

Letzte Wetterlage 24.10.2014 16:22
Wetterdiagramm
Tabellarische Darstellung
Datum Temperatur Windchill Feuchte Luftdruck Windrichtung Windstärke Niederschlag
24.10.2014 16:22 13,3 °C 13,3 °C 81 % 1018,5 hPa 180 0.0 0,00 mm
24.10.2014 16:02 13,2 °C 12,3 °C 81 % 1018,6 hPa 190 2.2 0,00 mm
24.10.2014 15:42 13,2 °C 13,2 °C 80 % 1018,8 hPa 212 1.3 0,00 mm
24.10.2014 15:22 13,2 °C 13,2 °C 80 % 1018,9 hPa 189 0.4 0,00 mm
24.10.2014 15:02 13,2 °C 13,2 °C 80 % 1019,1 hPa 178 0.4 0,00 mm
24.10.2014 14:42 13,5 °C 13,5 °C 79 % 1019,3 hPa 212 0.9 0,00 mm
24.10.2014 14:22 13,4 °C 13,4 °C 78 % 1019,4 hPa 184 0.9 0,00 mm
24.10.2014 14:02 13,2 °C 13,2 °C 79 % 1019,7 hPa 195 0.0 0,00 mm
24.10.2014 13:42 13,1 °C 12,2 °C 79 % 1019,8 hPa 192 2.2 0,00 mm
24.10.2014 13:22 13,1 °C 13,1 °C 80 % 1020,0 hPa 213 0.9 0,00 mm
24.10.2014 13:02 13,0 °C 13,0 °C 79 % 1020,3 hPa 229 1.3 0,00 mm
24.10.2014 12:42 12,8 °C 12,8 °C 79 % 1020,4 hPa 205 0.9 0,00 mm
24.10.2014 12:22 12,4 °C 12,4 °C 81 % 1020,6 hPa 220 0.4 0,00 mm
24.10.2014 12:02 12,3 °C 11,3 °C 82 % 1020,6 hPa 195 2.2 0,00 mm
24.10.2014 11:42 12,1 °C 12,1 °C 83 % 1020,8 hPa 217 0.4 0,00 mm
24.10.2014 11:22 11,8 °C 11,8 °C 83 % 1020,8 hPa 207 1.3 0,00 mm
24.10.2014 11:02 11,7 °C 11,7 °C 84 % 1020,9 hPa 187 0.9 0,00 mm
24.10.2014 10:42 11,4 °C 11,4 °C 85 % 1020,9 hPa 196 0.4 0,00 mm
24.10.2014 10:22 11,3 °C 11,3 °C 86 % 1020,9 hPa 213 1.3 0,00 mm
24.10.2014 10:02 11,3 °C 11,3 °C 86 % 1020,8 hPa 214 0.9 0,00 mm
24.10.2014 09:42 11,2 °C 11,2 °C 86 % 1020,8 hPa 190 0.4 0,00 mm
24.10.2014 09:22 10,8 °C 10,8 °C 88 % 1020,8 hPa 240 0.9 0,00 mm
24.10.2014 09:02 10,4 °C 10,4 °C 91 % 1020,8 hPa 155 0.0 0,00 mm
24.10.2014 08:42 10,5 °C 10,5 °C 91 % 1020,9 hPa 171 0.0 0,00 mm
24.10.2014 08:22 10,4 °C 10,4 °C 91 % 1020,8 hPa 174 0.4 0,00 mm
Empfehlen Sie wetter.com
| Mehr
Neue Wetterwarnung

Neue Niederschlagsmeldung
Neue Meldung
Regen Liveticker
    sehr starker Regen/Gewitter
    starker Regen/Gewitter
    mäßiger bis starker Regen
    mäßiger Regen
    leichter bis mäßiger Regen
    kein Regen